Time;durP1;ratioP1;P1;durP2;ratioP2;P2;SDS_P1;SDS_P2;PMS_P1;PMS_P2;Temp;Humidity;BMP_temperature;BMP_pressure;BME280_temperature;BME280_humidity;BME280_pressure;Samples;Min_cycle;Max_cycle;Signal;HPM_P1;HPM_P2
2024/01/24 00:01:49;;;;;;;195.48;183.75;;;8.90;99.90;;;;;;12582464;28;20063;-87
2024/01/24 00:07:51;;;;;;;142.98;134.52;;;9.00;99.90;;;;;;12626367;28;20048;-86
2024/01/24 00:13:53;;;;;;;222.35;209.50;;;9.10;99.90;;;;;;12618990;28;20056;-86
2024/01/24 00:19:55;;;;;;;552.58;506.73;;;9.00;99.90;;;;;;12626642;28;20052;-86
2024/01/24 00:25:57;;;;;;;422.27;392.25;;;9.10;99.90;;;;;;12605340;28;20048;-86
2024/01/24 00:31:59;;;;;;;434.25;404.38;;;9.20;99.90;;;;;;12604476;28;20056;-86
2024/01/24 00:38:01;;;;;;;445.70;414.48;;;9.30;99.90;;;;;;12634500;28;20055;-87
2024/01/24 00:44:03;;;;;;;445.83;414.30;;;9.30;99.90;;;;;;12621208;28;20048;-87
2024/01/24 00:50:06;;;;;;;443.95;412.88;;;9.50;99.90;;;;;;12611569;28;20192;-86
2024/01/24 00:56:08;;;;;;;424.75;395.65;;;9.60;99.90;;;;;;12602091;28;20067;-89
2024/01/24 01:02:10;;;;;;;418.15;388.83;;;9.70;99.90;;;;;;12613930;28;20052;-85
2024/01/24 01:08:13;;;;;;;421.08;391.80;;;9.80;99.90;;;;;;12617586;28;20059;-88
2024/01/24 01:14:14;;;;;;;399.90;371.70;;;9.90;99.90;;;;;;12621671;28;20174;-86
2024/01/24 01:20:19;;;;;;;440.52;408.45;;;10.00;99.90;;;;;;12620111;28;20059;-83
2024/01/24 01:26:21;;;;;;;411.08;381.88;;;10.10;99.90;;;;;;12596956;28;20052;-85
2024/01/24 01:32:23;;;;;;;416.75;387.92;;;10.20;99.90;;;;;;12601482;28;20051;-88
2024/01/24 01:38:25;;;;;;;428.23;398.60;;;10.40;99.90;;;;;;12616977;28;20052;-85
2024/01/24 01:44:26;;;;;;;417.02;387.85;;;10.40;99.90;;;;;;12599831;28;20083;-88
2024/01/24 01:50:28;;;;;;;417.13;388.10;;;10.50;99.90;;;;;;12603324;28;20048;-84
2024/01/24 01:56:30;;;;;;;383.63;357.27;;;10.60;99.90;;;;;;12595613;28;20052;-88
2024/01/24 02:02:32;;;;;;;411.55;382.73;;;10.70;99.90;;;;;;12623038;28;20052;-88
2024/01/24 02:08:35;;;;;;;418.20;389.17;;;10.70;99.90;;;;;;12603911;28;20056;-85
2024/01/24 02:14:37;;;;;;;460.42;427.63;;;10.80;99.90;;;;;;12613399;28;20518;-85
2024/01/24 02:20:40;;;;;;;459.10;426.30;;;10.80;99.90;;;;;;12607202;28;20048;-85
2024/01/24 02:26:42;;;;;;;484.77;450.33;;;10.80;99.90;;;;;;12601861;28;20503;-82
2024/01/24 02:32:44;;;;;;;519.40;481.83;;;10.90;99.90;;;;;;12610568;28;20086;-82
2024/01/24 02:38:46;;;;;;;532.63;493.20;;;10.90;99.90;;;;;;12615400;28;20040;-83
2024/01/24 02:44:48;;;;;;;524.72;486.92;;;10.90;99.90;;;;;;12605428;28;20059;-82
2024/01/24 02:50:50;;;;;;;503.77;467.60;;;11.00;99.90;;;;;;12607188;28;20045;-85
2024/01/24 02:56:52;;;;;;;514.90;477.85;;;11.00;99.90;;;;;;12616536;28;20047;-79
2024/01/24 03:02:54;;;;;;;509.98;473.42;;;11.00;99.90;;;;;;12610803;28;20056;-80
2024/01/24 03:08:56;;;;;;;488.38;453.85;;;11.10;99.90;;;;;;12598447;28;20051;-83
2024/01/24 03:14:58;;;;;;;478.38;444.52;;;11.20;99.90;;;;;;12613040;28;20063;-83
2024/01/24 03:21:00;;;;;;;430.55;400.70;;;11.30;99.90;;;;;;12625212;28;20423;-81
2024/01/24 03:27:02;;;;;;;377.27;351.73;;;11.30;99.90;;;;;;12640180;28;20048;-82
2024/01/24 03:33:05;;;;;;;325.90;303.63;;;11.40;99.90;;;;;;12623095;28;20056;-82
2024/01/24 03:39:10;;;;;;;285.80;266.35;;;11.50;99.90;;;;;;12646689;28;20050;-82
2024/01/24 03:45:13;;;;;;;298.67;278.38;;;11.50;99.90;;;;;;12615471;28;20138;-83
2024/01/24 03:51:15;;;;;;;271.73;252.75;;;11.60;99.90;;;;;;12617532;28;20055;-83
2024/01/24 03:57:17;;;;;;;301.13;279.40;;;11.60;99.90;;;;;;12613433;28;20058;-82
2024/01/24 04:03:19;;;;;;;337.70;313.70;;;11.70;99.90;;;;;;12627715;28;20049;-83
2024/01/24 04:09:21;;;;;;;400.90;372.10;;;11.70;99.90;;;;;;12620240;28;20052;-83
2024/01/24 04:15:23;;;;;;;418.33;388.48;;;11.80;99.90;;;;;;12623641;28;20055;-84
2024/01/24 04:21:25;;;;;;;382.88;356.00;;;11.60;99.90;;;;;;12616828;28;20055;-81
2024/01/24 04:27:27;;;;;;;381.55;355.05;;;11.60;99.90;;;;;;12632771;28;20546;-82
2024/01/24 04:33:29;;;;;;;383.75;357.63;;;11.60;99.90;;;;;;12633995;28;20052;-82
2024/01/24 04:39:31;;;;;;;319.30;297.23;;;11.60;99.90;;;;;;12611848;28;20121;-83
2024/01/24 04:45:33;;;;;;;335.92;312.45;;;11.70;99.90;;;;;;12607831;28;20051;-84
2024/01/24 04:51:35;;;;;;;514.50;475.67;;;11.80;99.90;;;;;;12611442;28;20059;-83
2024/01/24 04:57:37;;;;;;;356.30;330.88;;;11.70;99.90;;;;;;12624553;28;20115;-84
2024/01/24 05:03:39;;;;;;;417.95;389.80;;;11.80;99.90;;;;;;12650355;28;20054;-83
2024/01/24 05:09:42;;;;;;;211.85;196.73;;;11.80;99.90;;;;;;12619639;28;20147;-86
2024/01/24 05:15:44;;;;;;;123.15;113.35;;;11.70;99.90;;;;;;12616329;28;20048;-86
2024/01/24 05:21:46;;;;;;;96.20;88.22;;;11.80;99.90;;;;;;12627659;28;20052;-84
2024/01/24 05:27:48;;;;;;;100.97;92.57;;;11.70;99.90;;;;;;12609992;28;20049;-87
2024/01/24 05:33:50;;;;;;;92.85;84.88;;;11.70;99.90;;;;;;12611374;28;20116;-82
2024/01/24 05:39:52;;;;;;;96.15;88.07;;;11.70;99.90;;;;;;12614835;28;20040;-86
2024/01/24 05:45:54;;;;;;;96.75;88.72;;;11.60;99.90;;;;;;12608691;28;20049;-85
2024/01/24 05:51:56;;;;;;;100.60;92.28;;;11.40;99.90;;;;;;12594588;28;20048;-82
2024/01/24 05:57:58;;;;;;;94.30;87.35;;;11.40;99.90;;;;;;12613415;28;20060;-85
2024/01/24 06:04:01;;;;;;;85.78;79.72;;;11.40;99.90;;;;;;12618319;28;20052;-87
2024/01/24 06:10:04;;;;;;;87.00;80.93;;;11.40;99.90;;;;;;12604606;28;20056;-88
2024/01/24 06:16:06;;;;;;;89.25;83.13;;;11.40;99.90;;;;;;12601182;28;20045;-88
2024/01/24 06:22:09;;;;;;;79.38;74.38;;;11.40;99.90;;;;;;12610486;28;20126;-87
2024/01/24 06:28:11;;;;;;;91.47;85.78;;;11.50;99.90;;;;;;12635385;28;20491;-89
2024/01/24 06:34:14;;;;;;;97.43;91.10;;;11.50;99.90;;;;;;12663474;28;20056;-89
2024/01/24 06:40:18;;;;;;;89.95;84.13;;;11.40;99.90;;;;;;12622079;28;20107;-87
2024/01/24 06:46:22;;;;;;;89.57;83.72;;;11.40;99.90;;;;;;12624483;28;20048;-89
2024/01/24 06:52:25;;;;;;;84.70;79.55;;;11.40;99.90;;;;;;12641658;28;20094;-88
2024/01/24 06:58:30;;;;;;;84.10;78.93;;;11.40;99.90;;;;;;12639558;28;20041;-87
2024/01/24 07:04:32;;;;;;;91.03;85.15;;;11.30;99.90;;;;;;12599757;28;20048;-86
2024/01/24 07:10:34;;;;;;;85.28;80.00;;;11.20;99.90;;;;;;12632013;28;20056;-87
2024/01/24 07:16:39;;;;;;;105.03;98.32;;;11.20;99.90;;;;;;12649147;28;20075;-88
2024/01/24 07:22:41;;;;;;;88.45;83.00;;;11.00;99.90;;;;;;12646311;28;20040;-88
2024/01/24 07:28:43;;;;;;;90.43;84.55;;;11.00;99.90;;;;;;12669485;28;20044;-88
2024/01/24 07:34:45;;;;;;;81.18;76.22;;;11.00;99.90;;;;;;12624003;28;20143;-88
2024/01/24 07:40:47;;;;;;;95.55;89.22;;;11.00;99.90;;;;;;12650447;28;20040;-87
2024/01/24 07:46:49;;;;;;;71.30;66.60;;;11.00;99.90;;;;;;12628454;28;20047;-85
2024/01/24 07:52:51;;;;;;;74.45;69.20;;;11.00;99.90;;;;;;12625344;28;20052;-85
2024/01/24 07:58:54;;;;;;;86.80;81.47;;;10.90;99.90;;;;;;12659619;28;20036;-88
2024/01/24 08:04:57;;;;;;;79.88;73.45;;;10.90;99.90;;;;;;12633566;28;20053;-84
2024/01/24 08:11:00;;;;;;;80.47;75.55;;;10.90;99.90;;;;;;12641438;28;20052;-88
2024/01/24 08:17:06;;;;;;;85.93;79.90;;;10.80;99.90;;;;;;12629810;28;20056;-87
2024/01/24 08:23:08;;;;;;;77.95;72.30;;;10.80;99.90;;;;;;12651758;28;20056;-88
2024/01/24 08:29:10;;;;;;;66.75;62.35;;;10.80;99.90;;;;;;12646710;28;20511;-85
2024/01/24 08:35:26;;;;;;;76.13;70.88;;;10.80;99.90;;;;;;12625391;28;20064;-86
2024/01/24 08:41:28;;;;;;;77.07;72.22;;;10.70;99.90;;;;;;12634942;28;20423;-86
2024/01/24 08:47:30;;;;;;;79.93;74.60;;;10.80;99.90;;;;;;12612772;28;20044;-87
2024/01/24 08:53:32;;;;;;;92.00;85.82;;;10.80;99.90;;;;;;12620276;28;20055;-88
2024/01/24 08:59:34;;;;;;;87.93;82.03;;;10.70;99.90;;;;;;12619958;28;20481;-86
2024/01/24 09:05:36;;;;;;;71.03;66.03;;;10.60;99.90;;;;;;12631746;28;20053;-90
2024/01/24 09:11:38;;;;;;;80.25;74.65;;;10.70;99.90;;;;;;12628545;28;20052;-87
2024/01/24 09:17:55;;;;;;;78.13;72.30;;;10.70;99.90;;;;;;12631760;28;20048;-86
2024/01/24 09:23:57;;;;;;;68.00;63.30;;;10.60;99.90;;;;;;12618828;28;20048;-85
2024/01/24 09:29:59;;;;;;;64.25;59.45;;;10.60;99.90;;;;;;12631707;28;20063;-86
2024/01/24 09:36:02;;;;;;;62.53;57.55;;;10.60;99.90;;;;;;12627596;28;20147;-85
2024/01/24 09:42:08;;;;;;;58.72;54.53;;;10.60;99.90;;;;;;12613075;28;20622;-85
2024/01/24 09:48:11;;;;;;;62.72;58.05;;;10.50;99.90;;;;;;12623539;28;20062;-84
2024/01/24 09:54:16;;;;;;;68.33;63.00;;;10.60;99.90;;;;;;12615055;28;20198;-86
2024/01/24 10:00:21;;;;;;;54.40;50.50;;;10.50;99.90;;;;;;12617981;28;20044;-84
2024/01/24 10:06:24;;;;;;;54.08;49.58;;;10.50;99.90;;;;;;12584798;28;20194;-86
2024/01/24 10:12:26;;;;;;;57.17;53.20;;;10.40;99.90;;;;;;12641404;28;20060;-83
2024/01/24 10:18:28;;;;;;;56.65;52.50;;;10.40;99.90;;;;;;12627957;28;20062;-85
2024/01/24 10:24:31;;;;;;;48.63;44.47;;;10.30;99.90;;;;;;12625675;28;20060;-83
2024/01/24 10:30:35;;;;;;;50.83;46.63;;;10.40;99.90;;;;;;12603186;28;20048;-85
2024/01/24 10:36:38;;;;;;;46.88;43.30;;;10.40;99.90;;;;;;12629087;28;20112;-87
2024/01/24 10:42:49;;;;;;;48.10;44.08;;;10.30;99.90;;;;;;12621679;28;20063;-86
2024/01/24 10:48:53;;;;;;;51.70;47.08;;;10.40;99.90;;;;;;12641285;28;20040;-88
2024/01/24 10:55:03;;;;;;;44.47;40.45;;;10.30;99.90;;;;;;12596070;28;20032;-87
2024/01/24 11:01:06;;;;;;;45.63;41.58;;;10.40;99.90;;;;;;12573668;28;20113;-85
2024/01/24 11:07:19;;;;;;;43.42;39.70;;;10.30;99.90;;;;;;12588671;28;20053;-88
2024/01/24 11:13:23;;;;;;;38.85;35.72;;;10.30;99.90;;;;;;12631978;28;20074;-84
2024/01/24 11:19:28;;;;;;;39.97;36.50;;;10.30;99.90;;;;;;12588498;28;20040;-87
2024/01/24 11:25:37;;;;;;;42.80;39.38;;;10.40;99.90;;;;;;12588878;28;20048;-85
2024/01/24 11:31:42;;;;;;;39.50;36.15;;;10.30;99.90;;;;;;12594248;28;20178;-87
2024/01/24 11:37:44;;;;;;;;;;;10.40;99.90;;;;;;12594973;28;20428;-86
2024/01/24 11:43:48;;;;;;;33.95;30.75;;;10.40;99.90;;;;;;12604086;28;19920;-85
2024/01/24 11:49:50;;;;;;;;;;;10.40;99.90;;;;;;12599065;28;20049;-80
2024/01/24 11:56:14;;;;;;;39.13;35.60;;;10.30;99.90;;;;;;12586246;28;19967;-81
2024/01/24 12:02:18;;;;;;;33.30;30.25;;;10.30;99.90;;;;;;12607348;28;20117;-85
2024/01/24 12:08:20;;;;;;;35.87;32.80;;;10.40;99.90;;;;;;12610157;28;20053;-85
2024/01/24 12:14:23;;;;;;;31.20;28.00;;;10.30;99.90;;;;;;12599806;28;20076;-82
2024/01/24 12:20:26;;;;;;;33.58;30.17;;;10.30;99.90;;;;;;12607938;28;20052;-81
2024/01/24 12:26:32;;;;;;;36.20;31.98;;;10.30;99.90;;;;;;12616366;28;20064;-82
2024/01/24 12:32:34;;;;;;;33.83;30.52;;;10.30;99.90;;;;;;12600982;28;20048;-82
2024/01/24 12:38:36;;;;;;;30.40;27.55;;;10.30;99.90;;;;;;12582031;28;20060;-83
2024/01/24 12:44:40;;;;;;;30.67;27.98;;;10.30;99.90;;;;;;12605209;28;20084;-82
2024/01/24 12:50:42;;;;;;;31.57;28.50;;;10.30;99.90;;;;;;12591510;28;20060;-85
2024/01/24 12:56:48;;;;;;;30.80;28.05;;;10.30;99.90;;;;;;12592133;28;20368;-86
2024/01/24 13:02:53;;;;;;;34.22;27.50;;;10.20;99.90;;;;;;12558032;28;20051;-87
2024/01/24 13:08:54;;;;;;;30.98;27.75;;;10.30;99.90;;;;;;12555691;28;20052;-84
2024/01/24 13:14:56;;;;;;;29.70;26.60;;;10.30;99.90;;;;;;12566436;28;20053;-83
2024/01/24 13:21:01;;;;;;;28.20;25.13;;;10.30;99.90;;;;;;12595935;28;20084;-87
2024/01/24 13:27:03;;;;;;;26.83;23.95;;;10.20;99.90;;;;;;12583172;28;20056;-85
2024/01/24 13:33:06;;;;;;;27.58;24.58;;;10.20;99.90;;;;;;12578775;28;20068;-84
2024/01/24 13:39:12;;;;;;;33.83;28.95;;;10.20;99.90;;;;;;12573881;28;20067;-85
2024/01/24 13:45:14;;;;;;;24.45;22.08;;;10.20;99.90;;;;;;12561718;28;20511;-84
2024/01/24 13:51:17;;;;;;;24.57;22.50;;;10.20;99.90;;;;;;12558906;28;20143;-84
2024/01/24 13:57:27;;;;;;;21.83;19.70;;;10.10;99.90;;;;;;12581039;28;20059;-85
2024/01/24 14:03:30;;;;;;;22.35;20.48;;;10.20;99.90;;;;;;12600116;28;20052;-85
2024/01/24 14:09:32;;;;;;;23.50;19.75;;;10.20;99.90;;;;;;12576885;28;20064;-82
2024/01/24 14:15:39;;;;;;;25.40;18.20;;;10.20;99.90;;;;;;12578564;28;20053;-85
2024/01/24 14:21:41;;;;;;;22.70;20.58;;;10.20;99.90;;;;;;12582043;28;20055;-84
2024/01/24 14:27:43;;;;;;;23.67;21.38;;;10.10;99.90;;;;;;12581499;28;20077;-84
2024/01/24 14:33:46;;;;;;;23.85;21.40;;;10.10;99.90;;;;;;12562024;28;20056;-83
2024/01/24 14:39:48;;;;;;;22.60;19.80;;;9.90;99.90;;;;;;12573842;28;20045;-85
2024/01/24 14:45:50;;;;;;;21.42;19.35;;;9.90;99.90;;;;;;12580833;28;20052;-85
2024/01/24 14:51:52;;;;;;;18.13;16.15;;;9.90;99.90;;;;;;12569018;28;20068;-85
2024/01/24 14:57:55;;;;;;;19.38;16.98;;;9.90;99.90;;;;;;12519734;28;20067;-84
2024/01/24 15:03:57;;;;;;;20.85;18.05;;;9.90;99.90;;;;;;12540807;28;20052;-84
2024/01/24 15:09:59;;;;;;;19.70;17.75;;;9.90;99.90;;;;;;12529050;28;20045;-85
2024/01/24 15:16:02;;;;;;;22.27;15.02;;;9.90;99.90;;;;;;12528955;28;20064;-84
2024/01/24 15:22:04;;;;;;;24.23;17.17;;;9.90;99.90;;;;;;12537043;28;20057;-83
2024/01/24 15:28:06;;;;;;;21.40;19.33;;;9.90;99.90;;;;;;12519020;28;20057;-82
2024/01/24 15:34:10;;;;;;;20.90;18.88;;;9.80;99.90;;;;;;12533569;28;20057;-82
2024/01/24 15:40:17;;;;;;;23.33;17.15;;;9.70;99.90;;;;;;12519680;28;20053;-84
2024/01/24 15:46:19;;;;;;;21.05;19.02;;;9.80;99.90;;;;;;12523317;28;20057;-83
2024/01/24 15:52:23;;;;;;;21.45;18.75;;;9.70;99.90;;;;;;12529722;28;20161;-82
2024/01/24 15:58:25;;;;;;;21.90;19.83;;;9.70;99.90;;;;;;12590224;28;20064;-88
2024/01/24 16:04:28;;;;;;;23.52;16.98;;;9.70;99.90;;;;;;12586476;28;20056;-81
2024/01/24 16:10:31;;;;;;;20.88;18.70;;;9.70;99.90;;;;;;12579880;28;20087;-84
2024/01/24 16:16:33;;;;;;;22.48;17.55;;;9.60;99.90;;;;;;12600798;28;20105;-83
2024/01/24 16:22:35;;;;;;;19.15;16.63;;;9.60;99.90;;;;;;12586080;28;20119;-81
2024/01/24 16:28:47;;;;;;;23.42;15.30;;;9.60;99.90;;;;;;12576475;28;20048;-89
2024/01/24 16:34:49;;;;;;;16.05;13.68;;;9.70;99.90;;;;;;12579439;28;20049;-89
2024/01/24 16:40:52;;;;;;;18.50;13.77;;;9.60;99.90;;;;;;12580768;28;20119;-85
2024/01/24 16:46:54;;;;;;;22.25;14.57;;;9.60;99.90;;;;;;12579024;28;20611;-86
2024/01/24 16:52:56;;;;;;;20.42;15.85;;;9.60;99.90;;;;;;12594351;28;20056;-85
2024/01/24 16:58:58;;;;;;;21.27;14.75;;;9.60;99.90;;;;;;12610650;28;20063;-87
2024/01/24 17:05:03;;;;;;;18.00;14.73;;;9.50;99.90;;;;;;12617546;28;20048;-84
2024/01/24 17:11:05;;;;;;;20.70;15.75;;;9.50;99.90;;;;;;12616858;28;20068;-83
2024/01/24 17:17:07;;;;;;;19.15;14.90;;;9.40;99.90;;;;;;12619498;28;20063;-86
2024/01/24 17:23:09;;;;;;;22.98;16.63;;;9.40;99.90;;;;;;12616595;28;20492;-86
2024/01/24 17:29:10;;;;;;;17.05;15.18;;;9.40;99.90;;;;;;12603112;28;20083;-84
2024/01/24 17:35:13;;;;;;;22.77;15.80;;;9.30;99.90;;;;;;12612847;28;20048;-89
2024/01/24 17:41:14;;;;;;;22.08;14.43;;;9.30;99.90;;;;;;12600270;28;20069;-88
2024/01/24 17:47:16;;;;;;;20.45;15.90;;;9.30;99.90;;;;;;12612343;28;20049;-87
2024/01/24 17:53:19;;;;;;;17.40;15.60;;;9.20;99.90;;;;;;12614697;28;20142;-86
2024/01/24 17:59:21;;;;;;;25.65;14.98;;;9.20;99.90;;;;;;12594138;28;20056;-86
2024/01/24 18:05:23;;;;;;;21.45;15.05;;;9.20;99.90;;;;;;12594941;28;20281;-86
2024/01/24 18:11:26;;;;;;;25.08;15.27;;;9.20;99.90;;;;;;12599900;28;20052;-87
2024/01/24 18:17:28;;;;;;;18.58;14.40;;;9.20;99.90;;;;;;12627566;28;20544;-88
2024/01/24 18:23:30;;;;;;;25.70;16.40;;;9.20;99.90;;;;;;12591607;28;20075;-87
2024/01/24 18:29:32;;;;;;;20.23;14.52;;;9.10;99.90;;;;;;12582196;28;20489;-85
2024/01/24 18:35:34;;;;;;;22.13;14.82;;;9.10;99.90;;;;;;12603938;28;20062;-85
2024/01/24 18:41:36;;;;;;;17.33;15.02;;;9.10;99.90;;;;;;12588316;28;20068;-85
2024/01/24 18:47:39;;;;;;;17.90;15.15;;;9.10;99.90;;;;;;12599235;28;20053;-86
2024/01/24 18:53:42;;;;;;;17.33;13.30;;;9.00;99.90;;;;;;12606069;28;20040;-85
2024/01/24 18:59:44;;;;;;;16.77;14.40;;;9.00;99.90;;;;;;12611499;28;20045;-88
2024/01/24 19:05:46;;;;;;;18.83;13.40;;;9.00;99.90;;;;;;12596760;28;20098;-84
2024/01/24 19:11:48;;;;;;;20.83;15.80;;;9.00;99.90;;;;;;12626958;28;20086;-87
2024/01/24 19:17:51;;;;;;;16.60;14.75;;;8.90;99.90;;;;;;12619248;28;20063;-86
2024/01/24 19:23:53;;;;;;;23.23;14.55;;;8.90;99.90;;;;;;12601560;28;20483;-88
2024/01/24 19:29:55;;;;;;;21.95;14.38;;;8.90;99.90;;;;;;12596514;28;20063;-86
2024/01/24 19:35:57;;;;;;;23.02;15.68;;;8.90;99.90;;;;;;12612634;28;20063;-87
2024/01/24 19:41:59;;;;;;;21.38;15.82;;;8.80;99.90;;;;;;12614580;28;20079;-84
2024/01/24 19:48:01;;;;;;;16.38;14.65;;;8.80;99.90;;;;;;12606085;28;20063;-87
2024/01/24 19:54:03;;;;;;;24.25;15.32;;;8.80;99.90;;;;;;12614324;28;20090;-87
2024/01/24 20:00:06;;;;;;;21.95;16.27;;;8.80;99.90;;;;;;12612236;28;20056;-86
2024/01/24 20:06:10;;;;;;;22.02;13.82;;;8.80;99.90;;;;;;12616325;28;20075;-86
2024/01/24 20:12:12;;;;;;;19.05;14.38;;;8.80;99.90;;;;;;12614877;28;20052;-86
2024/01/24 20:18:17;;;;;;;19.10;14.40;;;8.70;99.90;;;;;;12623383;28;20133;-87
2024/01/24 20:24:21;;;;;;;24.83;15.50;;;8.70;99.90;;;;;;12613765;28;20056;-86
2024/01/24 20:30:23;;;;;;;19.33;16.90;;;8.80;99.90;;;;;;12589111;28;20052;-85
2024/01/24 20:36:25;;;;;;;23.08;15.85;;;8.70;99.90;;;;;;12613041;28;20148;-85
2024/01/24 20:42:27;;;;;;;22.27;17.05;;;8.60;99.90;;;;;;12621816;28;20091;-84
2024/01/24 20:48:31;;;;;;;22.73;17.75;;;8.50;99.90;;;;;;12615097;28;20076;-86
2024/01/24 20:54:34;;;;;;;21.73;18.20;;;8.50;99.90;;;;;;12624788;28;20104;-86
2024/01/24 21:00:36;;;;;;;22.60;20.25;;;8.50;99.90;;;;;;12610922;28;20045;-85
2024/01/24 21:06:39;;;;;;;26.63;21.23;;;8.50;99.90;;;;;;12621301;28;20551;-84
2024/01/24 21:12:41;;;;;;;27.90;19.50;;;8.50;99.90;;;;;;12612901;28;20048;-85
2024/01/24 21:18:43;;;;;;;25.10;20.33;;;8.40;99.90;;;;;;12617855;28;20508;-86
2024/01/24 21:24:46;;;;;;;30.02;23.77;;;8.40;99.90;;;;;;12589497;28;20072;-86
2024/01/24 21:30:47;;;;;;;25.63;22.25;;;8.50;99.90;;;;;;12605975;28;20055;-86
2024/01/24 21:36:50;;;;;;;25.83;22.42;;;8.40;99.90;;;;;;12596954;28;20060;-88
2024/01/24 21:42:52;;;;;;;31.30;28.20;;;8.40;99.90;;;;;;12609795;28;20047;-87
2024/01/24 21:48:54;;;;;;;31.55;28.50;;;8.30;99.90;;;;;;12616790;28;20059;-87
2024/01/24 21:54:56;;;;;;;31.95;28.50;;;8.30;99.90;;;;;;12631799;28;20068;-83
2024/01/24 22:00:58;;;;;;;36.53;33.67;;;8.40;99.90;;;;;;12599447;28;20093;-85
2024/01/24 22:07:01;;;;;;;33.72;30.42;;;8.30;99.90;;;;;;12617881;28;20603;-86
2024/01/24 22:13:04;;;;;;;35.75;32.35;;;8.30;99.90;;;;;;12593365;28;20185;-85
2024/01/24 22:19:06;;;;;;;38.55;34.90;;;8.30;99.90;;;;;;12595284;28;20568;-87
2024/01/24 22:25:09;;;;;;;42.50;39.10;;;8.30;99.90;;;;;;12603626;28;20072;-85
2024/01/24 22:31:11;;;;;;;41.97;37.95;;;8.20;99.90;;;;;;12603929;28;20071;-87
2024/01/24 22:37:17;;;;;;;44.63;40.80;;;8.20;99.90;;;;;;12608601;28;20577;-87
2024/01/24 22:43:19;;;;;;;47.83;43.78;;;8.20;99.90;;;;;;12594299;28;20519;-86
2024/01/24 22:49:21;;;;;;;47.25;43.55;;;8.10;99.90;;;;;;12614377;28;20178;-87
2024/01/24 22:55:23;;;;;;;45.60;42.50;;;8.10;99.90;;;;;;12612195;28;20049;-86
2024/01/24 23:01:27;;;;;;;44.60;40.92;;;8.10;99.90;;;;;;12614711;28;20186;-86
2024/01/24 23:07:30;;;;;;;44.85;41.72;;;8.10;99.90;;;;;;12632430;28;20044;-84
2024/01/24 23:13:32;;;;;;;48.15;44.63;;;8.20;99.90;;;;;;12671091;28;20061;-85
2024/01/24 23:19:35;;;;;;;46.35;42.83;;;8.10;99.90;;;;;;12668633;28;20104;-84
2024/01/24 23:25:37;;;;;;;52.20;48.20;;;8.10;99.90;;;;;;12681748;28;20573;-85
2024/01/24 23:31:39;;;;;;;48.40;44.20;;;8.10;99.90;;;;;;12644478;28;20036;-86
2024/01/24 23:37:41;;;;;;;51.58;47.70;;;8.10;99.90;;;;;;12663450;28;20036;-86
2024/01/24 23:43:43;;;;;;;48.75;44.30;;;8.10;99.90;;;;;;12651959;28;20049;-86
2024/01/24 23:49:45;;;;;;;54.40;50.20;;;8.10;99.90;;;;;;12598045;28;20059;-85
2024/01/24 23:55:48;;;;;;;52.47;48.58;;;8.00;99.90;;;;;;12612495;28;20064;-86
